sensor_id;sensor_type;location;lat;lon;timestamp;P1;durP1;ratioP1;P2;durP2;ratioP2
66886;SDS011;67239;51.680;5.976;2023-11-19T00:00:18;8.00;;;7.20;;
66886;SDS011;67239;51.680;5.976;2023-11-19T00:02:45;11.65;;;7.65;;
66886;SDS011;67239;51.680;5.976;2023-11-19T00:05:12;10.98;;;7.30;;
66886;SDS011;67239;51.680;5.976;2023-11-19T00:07:40;8.73;;;7.28;;
66886;SDS011;67239;51.680;5.976;2023-11-19T00:10:11;9.55;;;7.13;;
66886;SDS011;67239;51.680;5.976;2023-11-19T00:12:42;9.30;;;7.07;;
66886;SDS011;67239;51.680;5.976;2023-11-19T00:15:12;10.57;;;7.50;;
66886;SDS011;67239;51.680;5.976;2023-11-19T00:17:45;8.95;;;6.93;;
66886;SDS011;67239;51.680;5.976;2023-11-19T00:20:18;9.90;;;7.15;;
66886;SDS011;67239;51.680;5.976;2023-11-19T00:22:48;10.35;;;7.60;;
66886;SDS011;67239;51.680;5.976;2023-11-19T00:25:19;8.20;;;7.40;;
66886;SDS011;67239;51.680;5.976;2023-11-19T00:27:52;11.52;;;7.75;;
66886;SDS011;67239;51.680;5.976;2023-11-19T00:30:20;13.20;;;7.47;;
66886;SDS011;67239;51.680;5.976;2023-11-19T00:32:47;12.40;;;7.80;;
66886;SDS011;67239;51.680;5.976;2023-11-19T00:35:14;11.35;;;7.68;;
66886;SDS011;67239;51.680;5.976;2023-11-19T00:37:42;10.50;;;7.45;;
66886;SDS011;67239;51.680;5.976;2023-11-19T00:40:09;12.10;;;7.05;;
66886;SDS011;67239;51.680;5.976;2023-11-19T00:42:38;11.88;;;6.82;;
66886;SDS011;67239;51.680;5.976;2023-11-19T00:45:05;12.50;;;6.65;;
66886;SDS011;67239;51.680;5.976;2023-11-19T00:47:38;11.27;;;6.50;;
66886;SDS011;67239;51.680;5.976;2023-11-19T00:50:06;11.52;;;6.13;;
66886;SDS011;67239;51.680;5.976;2023-11-19T00:52:38;9.75;;;6.30;;
66886;SDS011;67239;51.680;5.976;2023-11-19T00:55:06;12.35;;;6.57;;
66886;SDS011;67239;51.680;5.976;2023-11-19T00:57:34;11.05;;;6.00;;
66886;SDS011;67239;51.680;5.976;2023-11-19T01:00:02;10.45;;;5.70;;
66886;SDS011;67239;51.680;5.976;2023-11-19T01:02:42;12.65;;;5.82;;
66886;SDS011;67239;51.680;5.976;2023-11-19T01:05:09;11.07;;;5.60;;
66886;SDS011;67239;51.680;5.976;2023-11-19T01:07:36;13.88;;;5.97;;
66886;SDS011;67239;51.680;5.976;2023-11-19T01:10:03;9.95;;;5.60;;
66886;SDS011;67239;51.680;5.976;2023-11-19T01:12:31;12.13;;;5.50;;
66886;SDS011;67239;51.680;5.976;2023-11-19T01:14:59;12.05;;;5.65;;
66886;SDS011;67239;51.680;5.976;2023-11-19T01:17:27;14.25;;;5.93;;
66886;SDS011;67239;51.680;5.976;2023-11-19T01:19:56;11.40;;;5.32;;
66886;SDS011;67239;51.680;5.976;2023-11-19T01:22:23;11.27;;;5.82;;
66886;SDS011;67239;51.680;5.976;2023-11-19T01:24:50;13.02;;;5.20;;
66886;SDS011;67239;51.680;5.976;2023-11-19T01:27:18;15.50;;;5.95;;
66886;SDS011;67239;51.680;5.976;2023-11-19T01:29:45;12.07;;;5.40;;
66886;SDS011;67239;51.680;5.976;2023-11-19T01:32:12;10.45;;;4.50;;
66886;SDS011;67239;51.680;5.976;2023-11-19T01:34:40;15.80;;;4.72;;
66886;SDS011;67239;51.680;5.976;2023-11-19T01:37:07;13.07;;;4.43;;
66886;SDS011;67239;51.680;5.976;2023-11-19T01:39:39;14.70;;;4.70;;
66886;SDS011;67239;51.680;5.976;2023-11-19T01:42:06;16.30;;;5.50;;
66886;SDS011;67239;51.680;5.976;2023-11-19T01:44:33;14.38;;;4.65;;
66886;SDS011;67239;51.680;5.976;2023-11-19T01:47:00;12.50;;;4.45;;
66886;SDS011;67239;51.680;5.976;2023-11-19T01:49:28;12.38;;;3.75;;
66886;SDS011;67239;51.680;5.976;2023-11-19T01:51:57;16.77;;;4.07;;
66886;SDS011;67239;51.680;5.976;2023-11-19T01:54:25;14.93;;;4.18;;
66886;SDS011;67239;51.680;5.976;2023-11-19T01:56:55;14.68;;;3.85;;
66886;SDS011;67239;51.680;5.976;2023-11-19T01:59:23;16.02;;;3.83;;
66886;SDS011;67239;51.680;5.976;2023-11-19T02:01:54;13.38;;;3.70;;
66886;SDS011;67239;51.680;5.976;2023-11-19T02:04:24;18.92;;;3.50;;
66886;SDS011;67239;51.680;5.976;2023-11-19T02:06:54;15.90;;;3.40;;
66886;SDS011;67239;51.680;5.976;2023-11-19T02:09:25;14.55;;;3.63;;
66886;SDS011;67239;51.680;5.976;2023-11-19T02:11:53;14.05;;;3.42;;
66886;SDS011;67239;51.680;5.976;2023-11-19T02:14:25;14.32;;;3.70;;
66886;SDS011;67239;51.680;5.976;2023-11-19T02:16:52;14.40;;;3.70;;
66886;SDS011;67239;51.680;5.976;2023-11-19T02:19:19;13.65;;;3.40;;
66886;SDS011;67239;51.680;5.976;2023-11-19T02:21:47;15.38;;;3.30;;
66886;SDS011;67239;51.680;5.976;2023-11-19T02:24:14;11.27;;;3.15;;
66886;SDS011;67239;51.680;5.976;2023-11-19T02:27:02;11.68;;;3.40;;
66886;SDS011;67239;51.680;5.976;2023-11-19T02:29:42;16.73;;;3.28;;
66886;SDS011;67239;51.680;5.976;2023-11-19T02:32:09;14.50;;;3.63;;
66886;SDS011;67239;51.680;5.976;2023-11-19T02:34:36;14.27;;;3.20;;
66886;SDS011;67239;51.680;5.976;2023-11-19T02:37:03;14.23;;;3.15;;
66886;SDS011;67239;51.680;5.976;2023-11-19T02:39:32;21.83;;;3.90;;
66886;SDS011;67239;51.680;5.976;2023-11-19T02:41:59;16.63;;;3.63;;
66886;SDS011;67239;51.680;5.976;2023-11-19T02:44:26;15.45;;;3.42;;
66886;SDS011;67239;51.680;5.976;2023-11-19T02:46:57;14.98;;;3.65;;
66886;SDS011;67239;51.680;5.976;2023-11-19T02:49:26;17.52;;;3.58;;
66886;SDS011;67239;51.680;5.976;2023-11-19T02:51:53;17.95;;;3.90;;
66886;SDS011;67239;51.680;5.976;2023-11-19T02:54:20;14.32;;;3.33;;
66886;SDS011;67239;51.680;5.976;2023-11-19T02:56:53;17.83;;;4.38;;
66886;SDS011;67239;51.680;5.976;2023-11-19T02:59:26;17.25;;;4.00;;
66886;SDS011;67239;51.680;5.976;2023-11-19T03:02:05;15.30;;;4.05;;
66886;SDS011;67239;51.680;5.976;2023-11-19T03:04:39;16.45;;;4.10;;
66886;SDS011;67239;51.680;5.976;2023-11-19T03:07:12;22.95;;;4.82;;
66886;SDS011;67239;51.680;5.976;2023-11-19T03:09:40;23.15;;;4.47;;
66886;SDS011;67239;51.680;5.976;2023-11-19T03:12:07;25.83;;;5.10;;
66886;SDS011;67239;51.680;5.976;2023-11-19T03:14:34;26.65;;;4.75;;
66886;SDS011;67239;51.680;5.976;2023-11-19T03:17:02;22.50;;;4.50;;
66886;SDS011;67239;51.680;5.976;2023-11-19T03:19:30;24.88;;;5.13;;
66886;SDS011;67239;51.680;5.976;2023-11-19T03:21:57;24.02;;;5.40;;
66886;SDS011;67239;51.680;5.976;2023-11-19T03:24:26;20.63;;;4.53;;
66886;SDS011;67239;51.680;5.976;2023-11-19T03:26:53;20.25;;;4.53;;
66886;SDS011;67239;51.680;5.976;2023-11-19T03:29:20;23.80;;;5.57;;
66886;SDS011;67239;51.680;5.976;2023-11-19T03:31:47;21.13;;;4.85;;
66886;SDS011;67239;51.680;5.976;2023-11-19T03:34:14;21.48;;;4.82;;
66886;SDS011;67239;51.680;5.976;2023-11-19T03:36:42;24.77;;;5.32;;
66886;SDS011;67239;51.680;5.976;2023-11-19T03:39:10;29.30;;;5.75;;
66886;SDS011;67239;51.680;5.976;2023-11-19T03:41:37;20.23;;;4.88;;
66886;SDS011;67239;51.680;5.976;2023-11-19T03:44:07;20.73;;;4.18;;
66886;SDS011;67239;51.680;5.976;2023-11-19T03:46:34;23.27;;;4.82;;
66886;SDS011;67239;51.680;5.976;2023-11-19T03:49:03;24.38;;;4.97;;
66886;SDS011;67239;51.680;5.976;2023-11-19T03:51:33;24.25;;;4.85;;
66886;SDS011;67239;51.680;5.976;2023-11-19T03:54:01;22.90;;;4.45;;
66886;SDS011;67239;51.680;5.976;2023-11-19T03:56:28;26.30;;;5.15;;
66886;SDS011;67239;51.680;5.976;2023-11-19T03:58:57;24.75;;;4.63;;
66886;SDS011;67239;51.680;5.976;2023-11-19T04:01:24;20.83;;;4.60;;
66886;SDS011;67239;51.680;5.976;2023-11-19T04:03:51;27.25;;;4.45;;
66886;SDS011;67239;51.680;5.976;2023-11-19T04:06:19;27.08;;;5.03;;
66886;SDS011;67239;51.680;5.976;2023-11-19T04:08:46;24.50;;;4.65;;
66886;SDS011;67239;51.680;5.976;2023-11-19T04:11:13;24.20;;;4.70;;
66886;SDS011;67239;51.680;5.976;2023-11-19T04:13:40;25.52;;;4.47;;
66886;SDS011;67239;51.680;5.976;2023-11-19T04:16:07;31.38;;;5.57;;
66886;SDS011;67239;51.680;5.976;2023-11-19T04:18:35;26.48;;;4.80;;
66886;SDS011;67239;51.680;5.976;2023-11-19T04:21:05;29.08;;;4.53;;
66886;SDS011;67239;51.680;5.976;2023-11-19T04:23:33;29.67;;;4.72;;
66886;SDS011;67239;51.680;5.976;2023-11-19T04:26:03;22.90;;;4.72;;
66886;SDS011;67239;51.680;5.976;2023-11-19T04:28:34;28.97;;;4.87;;
66886;SDS011;67239;51.680;5.976;2023-11-19T04:31:01;33.13;;;5.50;;
66886;SDS011;67239;51.680;5.976;2023-11-19T04:33:30;25.48;;;4.90;;
66886;SDS011;67239;51.680;5.976;2023-11-19T04:35:57;28.13;;;5.13;;
66886;SDS011;67239;51.680;5.976;2023-11-19T04:38:24;26.90;;;5.20;;
66886;SDS011;67239;51.680;5.976;2023-11-19T04:40:53;32.65;;;5.38;;
66886;SDS011;67239;51.680;5.976;2023-11-19T04:43:20;32.30;;;5.60;;
66886;SDS011;67239;51.680;5.976;2023-11-19T04:45:47;27.20;;;5.22;;
66886;SDS011;67239;51.680;5.976;2023-11-19T04:48:14;33.17;;;4.65;;
66886;SDS011;67239;51.680;5.976;2023-11-19T04:50:41;31.45;;;5.55;;
66886;SDS011;67239;51.680;5.976;2023-11-19T04:53:08;33.97;;;6.10;;
66886;SDS011;67239;51.680;5.976;2023-11-19T04:55:35;26.73;;;5.00;;
66886;SDS011;67239;51.680;5.976;2023-11-19T04:58:02;29.52;;;5.55;;
66886;SDS011;67239;51.680;5.976;2023-11-19T05:00:29;31.58;;;5.30;;
66886;SDS011;67239;51.680;5.976;2023-11-19T05:02:56;25.98;;;4.90;;
66886;SDS011;67239;51.680;5.976;2023-11-19T05:05:24;32.83;;;6.05;;
66886;SDS011;67239;51.680;5.976;2023-11-19T05:07:51;30.52;;;5.47;;
66886;SDS011;67239;51.680;5.976;2023-11-19T05:10:18;34.03;;;5.45;;
66886;SDS011;67239;51.680;5.976;2023-11-19T05:12:45;26.08;;;5.07;;
66886;SDS011;67239;51.680;5.976;2023-11-19T05:15:12;26.42;;;5.55;;
66886;SDS011;67239;51.680;5.976;2023-11-19T05:17:39;28.45;;;5.32;;
66886;SDS011;67239;51.680;5.976;2023-11-19T05:20:06;33.60;;;5.28;;
66886;SDS011;67239;51.680;5.976;2023-11-19T05:22:40;34.38;;;5.93;;
66886;SDS011;67239;51.680;5.976;2023-11-19T05:25:08;28.92;;;5.95;;
66886;SDS011;67239;51.680;5.976;2023-11-19T05:27:37;30.30;;;5.47;;
66886;SDS011;67239;51.680;5.976;2023-11-19T05:30:05;34.45;;;6.35;;
66886;SDS011;67239;51.680;5.976;2023-11-19T05:32:37;31.30;;;5.90;;
66886;SDS011;67239;51.680;5.976;2023-11-19T05:35:04;27.90;;;5.45;;
66886;SDS011;67239;51.680;5.976;2023-11-19T05:37:34;44.10;;;5.47;;
66886;SDS011;67239;51.680;5.976;2023-11-19T05:40:02;33.00;;;5.80;;
66886;SDS011;67239;51.680;5.976;2023-11-19T05:42:31;35.00;;;6.10;;
66886;SDS011;67239;51.680;5.976;2023-11-19T05:44:59;32.53;;;6.28;;
66886;SDS011;67239;51.680;5.976;2023-11-19T05:47:26;29.35;;;4.90;;
66886;SDS011;67239;51.680;5.976;2023-11-19T05:49:53;29.83;;;5.50;;
66886;SDS011;67239;51.680;5.976;2023-11-19T05:52:20;34.10;;;6.75;;
66886;SDS011;67239;51.680;5.976;2023-11-19T05:54:48;33.17;;;5.40;;
66886;SDS011;67239;51.680;5.976;2023-11-19T05:57:19;34.65;;;6.30;;
66886;SDS011;67239;51.680;5.976;2023-11-19T05:59:50;29.05;;;5.13;;
66886;SDS011;67239;51.680;5.976;2023-11-19T06:02:17;27.17;;;5.40;;
66886;SDS011;67239;51.680;5.976;2023-11-19T06:04:44;31.65;;;5.78;;
66886;SDS011;67239;51.680;5.976;2023-11-19T06:07:14;26.13;;;4.55;;
66886;SDS011;67239;51.680;5.976;2023-11-19T06:09:42;34.17;;;5.65;;
66886;SDS011;67239;51.680;5.976;2023-11-19T06:12:09;26.38;;;5.25;;
66886;SDS011;67239;51.680;5.976;2023-11-19T06:14:36;30.35;;;5.72;;
66886;SDS011;67239;51.680;5.976;2023-11-19T06:17:03;35.95;;;6.03;;
66886;SDS011;67239;51.680;5.976;2023-11-19T06:19:31;26.67;;;4.95;;
66886;SDS011;67239;51.680;5.976;2023-11-19T06:22:01;26.95;;;4.97;;
66886;SDS011;67239;51.680;5.976;2023-11-19T06:24:28;29.60;;;4.97;;
66886;SDS011;67239;51.680;5.976;2023-11-19T06:26:57;26.30;;;5.07;;
66886;SDS011;67239;51.680;5.976;2023-11-19T06:29:25;31.15;;;5.95;;
66886;SDS011;67239;51.680;5.976;2023-11-19T06:31:52;30.05;;;5.00;;
66886;SDS011;67239;51.680;5.976;2023-11-19T06:34:19;32.35;;;5.70;;
66886;SDS011;67239;51.680;5.976;2023-11-19T06:36:48;28.08;;;4.95;;
66886;SDS011;67239;51.680;5.976;2023-11-19T06:39:15;36.42;;;6.15;;
66886;SDS011;67239;51.680;5.976;2023-11-19T06:41:45;24.73;;;5.38;;
66886;SDS011;67239;51.680;5.976;2023-11-19T06:44:13;38.13;;;5.63;;
66886;SDS011;67239;51.680;5.976;2023-11-19T06:46:40;33.75;;;5.90;;
66886;SDS011;67239;51.680;5.976;2023-11-19T06:49:10;43.33;;;5.90;;
66886;SDS011;67239;51.680;5.976;2023-11-19T06:51:41;32.95;;;5.40;;
66886;SDS011;67239;51.680;5.976;2023-11-19T06:54:16;32.28;;;5.70;;
66886;SDS011;67239;51.680;5.976;2023-11-19T06:56:46;37.95;;;6.05;;
66886;SDS011;67239;51.680;5.976;2023-11-19T06:59:20;30.13;;;4.88;;
66886;SDS011;67239;51.680;5.976;2023-11-19T07:01:48;36.10;;;5.95;;
66886;SDS011;67239;51.680;5.976;2023-11-19T07:04:15;34.47;;;5.32;;
66886;SDS011;67239;51.680;5.976;2023-11-19T07:06:42;31.83;;;5.80;;
66886;SDS011;67239;51.680;5.976;2023-11-19T07:09:09;29.48;;;5.32;;
66886;SDS011;67239;51.680;5.976;2023-11-19T07:11:40;33.63;;;6.60;;
66886;SDS011;67239;51.680;5.976;2023-11-19T07:14:14;29.30;;;5.65;;
66886;SDS011;67239;51.680;5.976;2023-11-19T07:16:41;34.70;;;5.32;;
66886;SDS011;67239;51.680;5.976;2023-11-19T07:19:09;27.13;;;5.95;;
66886;SDS011;67239;51.680;5.976;2023-11-19T07:21:43;26.88;;;4.82;;
66886;SDS011;67239;51.680;5.976;2023-11-19T07:24:11;29.05;;;5.20;;
66886;SDS011;67239;51.680;5.976;2023-11-19T07:26:42;30.88;;;5.65;;
66886;SDS011;67239;51.680;5.976;2023-11-19T07:29:11;42.70;;;5.93;;
66886;SDS011;67239;51.680;5.976;2023-11-19T07:31:38;34.15;;;5.13;;
66886;SDS011;67239;51.680;5.976;2023-11-19T07:34:05;32.33;;;5.70;;
66886;SDS011;67239;51.680;5.976;2023-11-19T07:36:33;29.45;;;4.90;;
66886;SDS011;67239;51.680;5.976;2023-11-19T07:39:00;31.55;;;5.60;;
66886;SDS011;67239;51.680;5.976;2023-11-19T07:41:30;23.40;;;5.30;;
66886;SDS011;67239;51.680;5.976;2023-11-19T07:44:04;38.47;;;5.25;;
66886;SDS011;67239;51.680;5.976;2023-11-19T07:46:33;30.67;;;4.72;;
66886;SDS011;67239;51.680;5.976;2023-11-19T07:49:00;28.40;;;5.82;;
66886;SDS011;67239;51.680;5.976;2023-11-19T07:51:29;28.00;;;4.97;;
66886;SDS011;67239;51.680;5.976;2023-11-19T07:53:56;32.83;;;5.43;;
66886;SDS011;67239;51.680;5.976;2023-11-19T07:56:23;34.90;;;5.03;;
66886;SDS011;67239;51.680;5.976;2023-11-19T07:58:50;29.20;;;4.97;;
66886;SDS011;67239;51.680;5.976;2023-11-19T08:01:18;29.67;;;5.43;;
66886;SDS011;67239;51.680;5.976;2023-11-19T08:03:45;24.52;;;4.68;;
66886;SDS011;67239;51.680;5.976;2023-11-19T08:06:15;39.65;;;5.50;;
66886;SDS011;67239;51.680;5.976;2023-11-19T08:08:42;34.75;;;5.40;;
66886;SDS011;67239;51.680;5.976;2023-11-19T08:11:10;28.75;;;5.32;;
66886;SDS011;67239;51.680;5.976;2023-11-19T08:13:39;35.33;;;5.45;;
66886;SDS011;67239;51.680;5.976;2023-11-19T08:16:07;32.67;;;5.78;;
66886;SDS011;67239;51.680;5.976;2023-11-19T08:18:34;33.55;;;6.03;;
66886;SDS011;67239;51.680;5.976;2023-11-19T08:21:01;31.40;;;5.38;;
66886;SDS011;67239;51.680;5.976;2023-11-19T08:23:31;30.70;;;5.05;;
66886;SDS011;67239;51.680;5.976;2023-11-19T08:25:59;29.95;;;5.78;;
66886;SDS011;67239;51.680;5.976;2023-11-19T08:28:26;34.15;;;6.30;;
66886;SDS011;67239;51.680;5.976;2023-11-19T08:30:54;31.67;;;5.28;;
66886;SDS011;67239;51.680;5.976;2023-11-19T08:33:21;36.38;;;4.90;;
66886;SDS011;67239;51.680;5.976;2023-11-19T08:35:49;27.73;;;5.10;;
66886;SDS011;67239;51.680;5.976;2023-11-19T08:38:16;31.98;;;6.10;;
66886;SDS011;67239;51.680;5.976;2023-11-19T08:40:57;32.25;;;5.85;;
66886;SDS011;67239;51.680;5.976;2023-11-19T08:43:27;34.35;;;5.60;;
66886;SDS011;67239;51.680;5.976;2023-11-19T08:45:54;29.10;;;5.93;;
66886;SDS011;67239;51.680;5.976;2023-11-19T08:48:21;27.50;;;5.03;;
66886;SDS011;67239;51.680;5.976;2023-11-19T08:50:48;37.13;;;5.63;;
66886;SDS011;67239;51.680;5.976;2023-11-19T08:53:15;28.38;;;4.93;;
66886;SDS011;67239;51.680;5.976;2023-11-19T08:55:42;29.17;;;5.15;;
66886;SDS011;67239;51.680;5.976;2023-11-19T08:58:09;32.92;;;5.47;;
66886;SDS011;67239;51.680;5.976;2023-11-19T09:00:36;33.00;;;6.53;;
66886;SDS011;67239;51.680;5.976;2023-11-19T09:03:03;36.60;;;6.00;;
66886;SDS011;67239;51.680;5.976;2023-11-19T09:05:31;28.42;;;4.82;;
66886;SDS011;67239;51.680;5.976;2023-11-19T09:07:58;33.17;;;5.75;;
66886;SDS011;67239;51.680;5.976;2023-11-19T09:10:25;30.42;;;5.38;;
66886;SDS011;67239;51.680;5.976;2023-11-19T09:12:53;29.42;;;5.03;;
66886;SDS011;67239;51.680;5.976;2023-11-19T09:15:24;35.60;;;5.88;;
66886;SDS011;67239;51.680;5.976;2023-11-19T09:17:51;31.38;;;5.85;;
66886;SDS011;67239;51.680;5.976;2023-11-19T09:20:18;31.77;;;5.72;;
66886;SDS011;67239;51.680;5.976;2023-11-19T09:22:45;32.25;;;6.30;;
66886;SDS011;67239;51.680;5.976;2023-11-19T09:25:13;33.67;;;5.63;;
66886;SDS011;67239;51.680;5.976;2023-11-19T09:27:44;37.95;;;6.28;;
66886;SDS011;67239;51.680;5.976;2023-11-19T09:30:11;32.28;;;5.45;;
66886;SDS011;67239;51.680;5.976;2023-11-19T09:32:39;35.67;;;6.10;;
66886;SDS011;67239;51.680;5.976;2023-11-19T09:35:07;30.02;;;5.75;;
66886;SDS011;67239;51.680;5.976;2023-11-19T09:37:35;29.85;;;4.88;;
66886;SDS011;67239;51.680;5.976;2023-11-19T09:40:02;29.13;;;4.68;;
66886;SDS011;67239;51.680;5.976;2023-11-19T09:42:30;28.90;;;5.35;;
66886;SDS011;67239;51.680;5.976;2023-11-19T09:45:15;27.73;;;5.07;;
66886;SDS011;67239;51.680;5.976;2023-11-19T09:47:45;34.10;;;5.32;;
66886;SDS011;67239;51.680;5.976;2023-11-19T09:50:14;29.75;;;5.40;;
66886;SDS011;67239;51.680;5.976;2023-11-19T09:52:45;30.88;;;5.18;;
66886;SDS011;67239;51.680;5.976;2023-11-19T09:55:14;34.08;;;5.93;;
66886;SDS011;67239;51.680;5.976;2023-11-19T09:57:41;31.55;;;5.28;;
66886;SDS011;67239;51.680;5.976;2023-11-19T10:00:11;26.05;;;5.13;;
66886;SDS011;67239;51.680;5.976;2023-11-19T10:02:42;32.13;;;4.85;;
66886;SDS011;67239;51.680;5.976;2023-11-19T10:05:13;27.55;;;5.18;;
66886;SDS011;67239;51.680;5.976;2023-11-19T10:07:42;30.52;;;4.95;;
66886;SDS011;67239;51.680;5.976;2023-11-19T10:10:13;34.13;;;5.75;;
66886;SDS011;67239;51.680;5.976;2023-11-19T10:12:45;32.22;;;5.18;;
66886;SDS011;67239;51.680;5.976;2023-11-19T10:15:21;27.30;;;5.38;;
66886;SDS011;67239;51.680;5.976;2023-11-19T10:17:58;30.60;;;6.07;;
66886;SDS011;67239;51.680;5.976;2023-11-19T10:20:25;29.97;;;5.23;;
66886;SDS011;67239;51.680;5.976;2023-11-19T10:22:55;33.03;;;5.30;;
66886;SDS011;67239;51.680;5.976;2023-11-19T10:25:23;28.10;;;4.97;;
66886;SDS011;67239;51.680;5.976;2023-11-19T10:27:54;27.13;;;5.22;;
66886;SDS011;67239;51.680;5.976;2023-11-19T10:30:26;28.38;;;5.75;;
66886;SDS011;67239;51.680;5.976;2023-11-19T10:33:06;28.58;;;5.05;;
66886;SDS011;67239;51.680;5.976;2023-11-19T10:35:35;26.33;;;5.43;;
66886;SDS011;67239;51.680;5.976;2023-11-19T10:38:28;28.30;;;4.97;;
66886;SDS011;67239;51.680;5.976;2023-11-19T10:40:55;29.60;;;5.25;;
66886;SDS011;67239;51.680;5.976;2023-11-19T10:43:22;25.67;;;4.97;;
66886;SDS011;67239;51.680;5.976;2023-11-19T10:45:51;27.10;;;4.90;;
66886;SDS011;67239;51.680;5.976;2023-11-19T10:48:18;29.20;;;5.22;;
66886;SDS011;67239;51.680;5.976;2023-11-19T10:50:53;30.60;;;5.30;;
66886;SDS011;67239;51.680;5.976;2023-11-19T10:53:23;26.33;;;4.88;;
66886;SDS011;67239;51.680;5.976;2023-11-19T10:55:53;24.48;;;5.25;;
66886;SDS011;67239;51.680;5.976;2023-11-19T10:58:24;25.58;;;4.72;;
66886;SDS011;67239;51.680;5.976;2023-11-19T11:00:56;26.83;;;4.85;;
66886;SDS011;67239;51.680;5.976;2023-11-19T11:03:31;27.35;;;5.32;;
66886;SDS011;67239;51.680;5.976;2023-11-19T11:06:07;33.47;;;5.10;;
66886;SDS011;67239;51.680;5.976;2023-11-19T11:08:36;21.95;;;4.47;;
66886;SDS011;67239;51.680;5.976;2023-11-19T11:11:05;28.33;;;4.53;;
66886;SDS011;67239;51.680;5.976;2023-11-19T11:13:34;25.63;;;4.57;;
66886;SDS011;67239;51.680;5.976;2023-11-19T11:16:08;23.25;;;4.45;;
66886;SDS011;67239;51.680;5.976;2023-11-19T11:18:35;28.80;;;4.97;;
66886;SDS011;67239;51.680;5.976;2023-11-19T11:21:10;22.58;;;4.45;;
66886;SDS011;67239;51.680;5.976;2023-11-19T11:23:56;27.08;;;4.60;;
66886;SDS011;67239;51.680;5.976;2023-11-19T11:36:13;26.30;;;4.78;;
66886;SDS011;67239;51.680;5.976;2023-11-19T11:38:50;28.42;;;4.95;;
66886;SDS011;67239;51.680;5.976;2023-11-19T11:41:21;25.33;;;4.35;;
66886;SDS011;67239;51.680;5.976;2023-11-19T11:43:55;22.88;;;4.28;;
66886;SDS011;67239;51.680;5.976;2023-11-19T11:49:00;23.38;;;4.60;;
66886;SDS011;67239;51.680;5.976;2023-11-19T11:57:02;18.45;;;4.43;;
66886;SDS011;67239;51.680;5.976;2023-11-19T11:59:45;21.15;;;3.90;;
66886;SDS011;67239;51.680;5.976;2023-11-19T12:02:15;27.20;;;4.07;;
66886;SDS011;67239;51.680;5.976;2023-11-19T12:09:55;21.85;;;3.67;;
66886;SDS011;67239;51.680;5.976;2023-11-19T12:12:43;18.30;;;3.55;;
66886;SDS011;67239;51.680;5.976;2023-11-19T12:15:10;23.10;;;3.83;;
66886;SDS011;67239;51.680;5.976;2023-11-19T12:17:41;17.50;;;3.92;;
66886;SDS011;67239;51.680;5.976;2023-11-19T12:20:18;17.45;;;3.63;;
66886;SDS011;67239;51.680;5.976;2023-11-19T12:22:50;14.50;;;3.40;;
66886;SDS011;67239;51.680;5.976;2023-11-19T12:25:18;17.50;;;3.22;;
66886;SDS011;67239;51.680;5.976;2023-11-19T12:27:47;19.70;;;3.78;;
66886;SDS011;67239;51.680;5.976;2023-11-19T12:30:23;13.35;;;2.97;;
66886;SDS011;67239;51.680;5.976;2023-11-19T12:32:52;17.77;;;3.50;;
66886;SDS011;67239;51.680;5.976;2023-11-19T12:35:21;19.27;;;3.97;;
66886;SDS011;67239;51.680;5.976;2023-11-19T12:37:50;16.58;;;3.30;;
66886;SDS011;67239;51.680;5.976;2023-11-19T12:40:20;16.08;;;3.47;;
66886;SDS011;67239;51.680;5.976;2023-11-19T12:42:52;20.50;;;3.60;;
66886;SDS011;67239;51.680;5.976;2023-11-19T12:45:22;22.17;;;4.35;;
66886;SDS011;67239;51.680;5.976;2023-11-19T12:48:11;22.17;;;6.25;;
66886;SDS011;67239;51.680;5.976;2023-11-19T12:50:57;21.63;;;4.10;;
66886;SDS011;67239;51.680;5.976;2023-11-19T12:53:26;17.85;;;3.95;;
66886;SDS011;67239;51.680;5.976;2023-11-19T12:55:54;20.80;;;3.78;;
66886;SDS011;67239;51.680;5.976;2023-11-19T12:58:33;17.45;;;3.60;;
66886;SDS011;67239;51.680;5.976;2023-11-19T13:01:03;15.30;;;3.70;;
66886;SDS011;67239;51.680;5.976;2023-11-19T13:03:37;21.40;;;3.85;;
66886;SDS011;67239;51.680;5.976;2023-11-19T13:06:06;21.10;;;4.07;;
66886;SDS011;67239;51.680;5.976;2023-11-19T13:11:08;20.55;;;4.30;;
66886;SDS011;67239;51.680;5.976;2023-11-19T13:16:26;17.98;;;3.60;;
66886;SDS011;67239;51.680;5.976;2023-11-19T13:18:55;18.52;;;3.72;;
66886;SDS011;67239;51.680;5.976;2023-11-19T13:21:22;22.92;;;6.65;;
66886;SDS011;67239;51.680;5.976;2023-11-19T13:23:50;22.23;;;4.65;;
66886;SDS011;67239;51.680;5.976;2023-11-19T13:26:17;15.50;;;4.63;;
66886;SDS011;67239;51.680;5.976;2023-11-19T13:28:45;17.92;;;4.25;;
66886;SDS011;67239;51.680;5.976;2023-11-19T13:31:12;18.80;;;3.80;;
66886;SDS011;67239;51.680;5.976;2023-11-19T13:33:41;23.38;;;4.40;;
66886;SDS011;67239;51.680;5.976;2023-11-19T13:36:09;22.23;;;3.92;;
66886;SDS011;67239;51.680;5.976;2023-11-19T13:38:40;17.38;;;3.80;;
66886;SDS011;67239;51.680;5.976;2023-11-19T13:41:08;20.45;;;3.70;;
66886;SDS011;67239;51.680;5.976;2023-11-19T13:43:36;23.80;;;3.88;;
66886;SDS011;67239;51.680;5.976;2023-11-19T13:46:04;19.58;;;3.30;;
66886;SDS011;67239;51.680;5.976;2023-11-19T13:48:32;20.33;;;3.85;;
66886;SDS011;67239;51.680;5.976;2023-11-19T13:50:59;22.70;;;4.90;;
66886;SDS011;67239;51.680;5.976;2023-11-19T13:53:26;28.95;;;8.77;;
66886;SDS011;67239;51.680;5.976;2023-11-19T13:55:53;20.48;;;5.78;;
66886;SDS011;67239;51.680;5.976;2023-11-19T13:58:20;22.50;;;4.20;;
66886;SDS011;67239;51.680;5.976;2023-11-19T14:00:48;21.52;;;4.22;;
66886;SDS011;67239;51.680;5.976;2023-11-19T14:03:15;17.65;;;3.75;;
66886;SDS011;67239;51.680;5.976;2023-11-19T14:05:42;20.70;;;4.10;;
66886;SDS011;67239;51.680;5.976;2023-11-19T14:08:09;20.92;;;3.70;;
66886;SDS011;67239;51.680;5.976;2023-11-19T14:10:51;17.73;;;3.83;;
66886;SDS011;67239;51.680;5.976;2023-11-19T14:13:19;18.02;;;3.53;;
66886;SDS011;67239;51.680;5.976;2023-11-19T14:15:46;17.75;;;3.50;;
66886;SDS011;67239;51.680;5.976;2023-11-19T14:18:16;17.13;;;4.20;;
66886;SDS011;67239;51.680;5.976;2023-11-19T14:20:44;18.77;;;3.67;;
66886;SDS011;67239;51.680;5.976;2023-11-19T14:23:12;18.85;;;3.50;;
66886;SDS011;67239;51.680;5.976;2023-11-19T14:25:39;18.73;;;4.15;;
66886;SDS011;67239;51.680;5.976;2023-11-19T14:28:06;17.20;;;3.47;;
66886;SDS011;67239;51.680;5.976;2023-11-19T14:30:34;18.95;;;3.42;;
66886;SDS011;67239;51.680;5.976;2023-11-19T14:33:01;19.27;;;3.53;;
66886;SDS011;67239;51.680;5.976;2023-11-19T14:35:30;17.15;;;3.08;;
66886;SDS011;67239;51.680;5.976;2023-11-19T14:37:57;13.63;;;3.38;;
66886;SDS011;67239;51.680;5.976;2023-11-19T14:40:24;14.82;;;3.03;;
66886;SDS011;67239;51.680;5.976;2023-11-19T14:42:55;16.60;;;3.38;;
66886;SDS011;67239;51.680;5.976;2023-11-19T14:45:22;16.33;;;3.72;;
66886;SDS011;67239;51.680;5.976;2023-11-19T14:47:49;17.63;;;3.45;;
66886;SDS011;67239;51.680;5.976;2023-11-19T14:50:17;18.05;;;3.72;;
66886;SDS011;67239;51.680;5.976;2023-11-19T14:52:44;20.48;;;3.35;;
66886;SDS011;67239;51.680;5.976;2023-11-19T14:55:11;18.42;;;3.45;;
66886;SDS011;67239;51.680;5.976;2023-11-19T14:57:38;17.35;;;3.90;;
66886;SDS011;67239;51.680;5.976;2023-11-19T15:00:06;17.35;;;3.60;;
66886;SDS011;67239;51.680;5.976;2023-11-19T15:02:40;19.25;;;5.70;;
66886;SDS011;67239;51.680;5.976;2023-11-19T15:05:08;18.65;;;4.63;;
66886;SDS011;67239;51.680;5.976;2023-11-19T15:07:38;23.25;;;6.07;;
66886;SDS011;67239;51.680;5.976;2023-11-19T15:10:07;18.48;;;4.25;;
66886;SDS011;67239;51.680;5.976;2023-11-19T15:12:37;20.42;;;3.58;;
66886;SDS011;67239;51.680;5.976;2023-11-19T15:15:07;17.15;;;3.15;;